createdAt,value
2018-08-31T00:00:25.580Z,27.4
2018-08-31T00:01:15.405Z,27.4
2018-08-31T00:02:04.922Z,27.4
2018-08-31T00:02:55.577Z,27.4
2018-08-31T00:03:45.824Z,27.4
2018-08-31T00:04:35.395Z,27.4
2018-08-31T00:05:25.173Z,27.4
2018-08-31T00:06:15.497Z,27.4
2018-08-31T00:07:06.120Z,27.4
2018-08-31T00:07:56.184Z,27.4
2018-08-31T00:08:45.415Z,27.4
2018-08-31T00:09:36.314Z,27.4
2018-08-31T00:10:26.734Z,27.4
2018-08-31T00:11:16.427Z,27.4
2018-08-31T00:12:05.349Z,27.4
2018-08-31T00:31:31.398Z,27.4
2018-08-31T00:32:20.103Z,27.4
2018-08-31T00:33:09.933Z,27.4
2018-08-31T00:34:00.835Z,27.4
2018-08-31T00:34:50.312Z,27.4
2018-08-31T00:35:40.953Z,27.4
2018-08-31T00:36:30.996Z,27.4
2018-08-31T00:37:20.805Z,27.4
2018-08-31T00:38:10.842Z,27.4
2018-08-31T00:39:00.927Z,27.4
2018-08-31T00:39:50.713Z,27.4
2018-08-31T00:40:40.509Z,27.4
2018-08-31T00:41:31.054Z,27.4
2018-08-31T00:42:21.510Z,27.4
2018-08-31T00:43:11.207Z,27.4
2018-08-31T00:44:01.338Z,27.4
2018-08-31T00:44:50.769Z,27.4
2018-08-31T00:45:41.707Z,27.4
2018-08-31T00:47:21.259Z,27.4
2018-08-31T00:48:11.930Z,27.4
2018-08-31T00:49:01.717Z,27.4
2018-08-31T00:49:51.782Z,27.4
2018-08-31T00:50:41.872Z,27.4
2018-08-31T00:51:31.307Z,27.4
2018-08-31T00:52:22.476Z,27.4
2018-08-31T00:53:12.001Z,27.4
2018-08-31T00:54:02.087Z,27.4
2018-08-31T00:54:52.116Z,27.4
2018-08-31T00:55:42.179Z,27.4
2018-08-31T00:56:31.711Z,27.4
2018-08-31T00:57:21.994Z,27.4
2018-08-31T00:58:12.127Z,27.4
2018-08-31T00:59:02.796Z,27.4
2018-08-31T00:59:51.931Z,27.4
2018-08-31T01:00:42.868Z,27.4
2018-08-31T01:01:32.613Z,27.4
2018-08-31T01:02:22.376Z,27.4
2018-08-31T01:03:12.280Z,27.4
2018-08-31T01:04:03.142Z,27.4
2018-08-31T01:04:52.916Z,27.4
2018-08-31T01:05:42.073Z,27.4
2018-08-31T01:06:33.266Z,27.4
2018-08-31T01:07:23.046Z,27.4
2018-08-31T01:08:12.568Z,27.4
2018-08-31T01:09:03.505Z,27.4
2018-08-31T01:09:53.265Z,27.4
2018-08-31T01:10:43.025Z,27.4
2018-08-31T01:11:33.123Z,27.4
2018-08-31T01:12:23.978Z,27.4
2018-08-31T01:13:14.118Z,27.4
2018-08-31T01:14:03.635Z,27.4
2018-08-31T01:14:53.751Z,27.4
2018-08-31T01:15:43.745Z,27.4
2018-08-31T01:16:33.816Z,27.4
2018-08-31T01:17:23.580Z,27.4
2018-08-31T01:18:14.193Z,27.4
2018-08-31T01:19:04.276Z,27.4
2018-08-31T01:19:53.760Z,27.5
2018-08-31T01:20:44.105Z,27.4
2018-08-31T01:21:33.895Z,27.4
2018-08-31T01:22:24.490Z,27.4
2018-08-31T01:23:14.582Z,27.4
2018-08-31T01:24:04.108Z,27.4
2018-08-31T01:24:54.755Z,27.4
2018-08-31T01:25:44.830Z,27.4
2018-08-31T01:26:34.277Z,27.4
2018-08-31T01:27:24.920Z,27.4
2018-08-31T01:28:14.742Z,27.4
2018-08-31T01:29:05.044Z,27.4
2018-08-31T01:29:55.123Z,27.5
2018-08-31T01:30:44.582Z,27.4
2018-08-31T01:31:34.945Z,27.4
2018-08-31T01:32:24.430Z,27.5
2018-08-31T01:33:15.318Z,27.4
2018-08-31T01:34:05.700Z,27.4
2018-08-31T01:34:55.232Z,27.5
2018-08-31T01:35:45.344Z,27.4
2018-08-31T01:36:35.350Z,27.4
2018-08-31T01:37:25.399Z,27.4
2018-08-31T01:38:15.779Z,27.4
2018-08-31T01:39:05.576Z,27.4
2018-08-31T01:39:55.347Z,27.5
2018-08-31T01:40:45.379Z,27.4
2018-08-31T01:41:35.192Z,27.4
2018-08-31T01:42:25.521Z,27.4
2018-08-31T01:43:15.857Z,27.4
2018-08-31T01:44:06.491Z,27.5
2018-08-31T01:44:55.962Z,27.4
2018-08-31T01:45:45.753Z,27.5
2018-08-31T01:46:36.171Z,27.5
2018-08-31T01:47:25.876Z,27.5
2018-08-31T01:48:16.509Z,27.5
2018-08-31T01:49:06.575Z,27.5
2018-08-31T01:49:56.053Z,27.5
2018-08-31T01:50:45.844Z,27.5
2018-08-31T01:51:36.504Z,27.4
2018-08-31T01:52:26.815Z,27.4
2018-08-31T01:53:16.618Z,27.5
2018-08-31T01:54:07.045Z,27.4
2018-08-31T01:54:56.471Z,27.5
2018-08-31T01:55:46.796Z,27.5
2018-08-31T01:56:36.585Z,27.5
2018-08-31T01:57:26.683Z,27.5
2018-08-31T01:58:16.995Z,27.5
2018-08-31T01:59:07.083Z,27.5
2018-08-31T01:59:56.863Z,27.5
2018-08-31T02:00:46.945Z,27.4
2018-08-31T02:01:37.260Z,27.4
2018-08-31T02:02:27.348Z,27.5
2018-08-31T02:03:17.387Z,27.4
2018-08-31T02:04:08.350Z,27.5
2018-08-31T02:04:56.966Z,27.4
2018-08-31T02:05:47.847Z,27.5
2018-08-31T02:06:37.930Z,27.5
2018-08-31T02:07:27.735Z,27.4
2018-08-31T02:08:17.739Z,27.5
2018-08-31T02:09:07.845Z,27.4
2018-08-31T02:09:58.229Z,27.5
2018-08-31T02:10:47.394Z,27.5
2018-08-31T02:11:37.469Z,27.4
2018-08-31T02:12:27.541Z,27.5
2018-08-31T02:13:18.150Z,27.5
2018-08-31T02:14:08.231Z,27.5
2018-08-31T02:14:58.557Z,27.5
2018-08-31T02:15:48.589Z,27.5
2018-08-31T02:16:38.684Z,27.5
2018-08-31T02:17:28.192Z,27.4
2018-08-31T02:18:18.529Z,27.5
2018-08-31T02:19:07.779Z,27.5
2018-08-31T02:19:58.674Z,27.5
2018-08-31T02:20:48.733Z,27.5
2018-08-31T02:21:38.920Z,27.5
2018-08-31T02:22:28.659Z,27.5
2018-08-31T02:23:19.027Z,27.5
2018-08-31T02:24:08.720Z,27.5
2018-08-31T02:24:58.791Z,27.5
2018-08-31T02:25:49.435Z,27.5
2018-08-31T02:26:39.730Z,27.5
2018-08-31T02:27:29.252Z,27.5
2018-08-31T02:28:19.315Z,27.5
2018-08-31T02:29:09.368Z,27.5
2018-08-31T02:29:59.709Z,27.5
2018-08-31T02:30:48.671Z,27.5
2018-08-31T02:31:39.849Z,27.5
2018-08-31T02:32:29.633Z,27.5
2018-08-31T02:33:19.708Z,27.5
2018-08-31T02:34:10.059Z,27.5
2018-08-31T02:34:59.828Z,27.5
2018-08-31T02:35:49.612Z,27.5
2018-08-31T02:36:39.982Z,27.5
2018-08-31T02:37:30.050Z,27.5
2018-08-31T02:38:20.365Z,27.5
2018-08-31T02:39:10.889Z,27.5
2018-08-31T02:40:00.515Z,27.5
2018-08-31T02:40:50.559Z,27.5
2018-08-31T02:41:40.326Z,27.5
2018-08-31T02:42:30.128Z,27.5
2018-08-31T02:43:20.175Z,27.5
2018-08-31T02:44:10.543Z,27.5
2018-08-31T02:45:00.833Z,27.5
2018-08-31T02:45:50.680Z,27.5
2018-08-31T02:46:40.716Z,27.5
2018-08-31T02:47:31.040Z,27.5
2018-08-31T02:48:21.158Z,27.5
2018-08-31T02:49:10.645Z,27.5
2018-08-31T02:50:00.685Z,27.5
2018-08-31T02:50:51.268Z,27.5
2018-08-31T02:51:40.805Z,27.5
2018-08-31T02:52:31.230Z,27.5
2018-08-31T02:53:20.938Z,27.5
2018-08-31T02:54:11.647Z,27.5
2018-08-31T02:55:01.647Z,27.5
2018-08-31T02:55:50.905Z,27.5
2018-08-31T02:56:41.237Z,27.5
2018-08-31T02:57:31.853Z,27.5
2018-08-31T02:58:21.639Z,27.5
2018-08-31T02:59:12.059Z,27.6
2018-08-31T03:00:02.325Z,27.5
2018-08-31T03:00:52.337Z,27.5
2018-08-31T03:01:41.947Z,27.5
2018-08-31T03:02:31.922Z,27.5
2018-08-31T03:03:21.429Z,27.5
2018-08-31T03:04:12.074Z,27.5
2018-08-31T03:05:02.400Z,27.5
2018-08-31T03:05:52.196Z,27.6
2018-08-31T03:06:42.232Z,27.6
2018-08-31T03:07:31.754Z,27.5
2018-08-31T03:08:21.874Z,27.5
2018-08-31T03:09:12.474Z,27.6
2018-08-31T03:10:02.597Z,27.5
2018-08-31T03:10:52.899Z,27.6
2018-08-31T03:11:44.268Z,27.6
2018-08-31T03:12:32.780Z,27.6
2018-08-31T03:13:22.553Z,27.6
2018-08-31T03:14:12.843Z,27.6
2018-08-31T03:15:02.901Z,27.5
2018-08-31T03:15:53.274Z,27.5
2018-08-31T03:16:43.285Z,27.6
2018-08-31T03:17:33.393Z,27.6
2018-08-31T03:18:22.584Z,27.5
2018-08-31T03:19:13.346Z,27.5
2018-08-31T03:20:03.131Z,27.5
2018-08-31T03:20:53.623Z,27.5
2018-08-31T03:21:43.990Z,27.5
2018-08-31T03:22:33.760Z,27.6
2018-08-31T03:23:23.818Z,27.5
2018-08-31T03:24:13.622Z,27.5
2018-08-31T03:25:03.703Z,27.6
2018-08-31T03:25:53.804Z,27.6
2018-08-31T03:26:43.801Z,27.5
2018-08-31T03:27:33.867Z,27.6
2018-08-31T03:28:24.225Z,27.6
2018-08-31T03:29:13.978Z,27.6
2018-08-31T03:30:04.108Z,27.6
2018-08-31T03:30:54.163Z,27.5
2018-08-31T03:31:43.659Z,27.6
2018-08-31T03:32:34.105Z,27.6
2018-08-31T03:33:24.357Z,27.6
2018-08-31T03:34:14.359Z,27.5
2018-08-31T03:35:04.581Z,27.6
2018-08-31T03:35:54.449Z,27.6
2018-08-31T03:36:44.746Z,27.5
2018-08-31T03:37:34.095Z,27.6
2018-08-31T03:38:24.989Z,27.5
2018-08-31T03:39:15.069Z,27.6
2018-08-31T03:40:04.839Z,27.6
2018-08-31T03:40:55.151Z,27.5
2018-08-31T03:41:44.694Z,27.6
2018-08-31T03:42:34.137Z,27.6
2018-08-31T03:43:24.885Z,27.5
2018-08-31T03:44:14.853Z,27.6
2018-08-31T03:45:05.231Z,27.5
2018-08-31T03:45:55.789Z,27.5
2018-08-31T03:46:45.314Z,27.6
2018-08-31T03:47:35.408Z,27.6
2018-08-31T03:48:25.496Z,27.6
2018-08-31T03:49:15.258Z,27.6
2018-08-31T03:50:05.610Z,27.5
2018-08-31T03:50:55.343Z,27.6
2018-08-31T03:51:46.055Z,27.5
2018-08-31T03:52:35.822Z,27.6
2018-08-31T03:53:25.278Z,27.6
2018-08-31T03:54:16.196Z,27.5
2018-08-31T03:55:06.293Z,27.6
2018-08-31T03:55:56.313Z,27.6
2018-08-31T03:56:46.067Z,27.6
2018-08-31T03:57:36.430Z,27.5
2018-08-31T03:58:25.644Z,27.5
2018-08-31T03:59:16.271Z,27.6
2018-08-31T04:00:06.360Z,27.5
2018-08-31T04:00:56.726Z,27.5
2018-08-31T04:01:46.507Z,27.5
2018-08-31T04:02:36.257Z,27.6
2018-08-31T04:03:26.965Z,27.6
2018-08-31T04:04:16.979Z,27.6
2018-08-31T04:05:06.782Z,27.6
2018-08-31T04:05:56.827Z,27.6
2018-08-31T04:06:47.170Z,27.6
2018-08-31T04:07:36.890Z,27.6
2018-08-31T04:08:27.291Z,27.6
2018-08-31T04:09:16.550Z,27.6
2018-08-31T04:10:07.449Z,27.6
2018-08-31T04:10:57.470Z,27.6
2018-08-31T04:11:47.509Z,27.6
2018-08-31T04:12:37.300Z,27.6
2018-08-31T04:13:27.108Z,27.6
2018-08-31T04:14:17.777Z,27.6
2018-08-31T04:15:08.412Z,27.6
2018-08-31T04:15:57.295Z,27.6
2018-08-31T04:16:46.741Z,27.6
2018-08-31T04:17:37.141Z,27.6
2018-08-31T04:18:28.075Z,27.6
2018-08-31T04:19:18.146Z,27.6
2018-08-31T04:20:08.154Z,27.5
2018-08-31T04:20:58.235Z,27.6
2018-08-31T04:21:47.453Z,27.6
2018-08-31T04:22:38.127Z,27.6
2018-08-31T04:23:28.165Z,27.6
2018-08-31T04:24:18.251Z,27.6
2018-08-31T04:25:08.082Z,27.6
2018-08-31T04:25:57.598Z,27.6
2018-08-31T04:26:48.421Z,27.6
2018-08-31T04:27:38.177Z,27.6
2018-08-31T04:28:28.168Z,27.6
2018-08-31T04:29:18.724Z,27.6
2018-08-31T04:30:08.529Z,27.6
2018-08-31T04:30:58.257Z,27.6
2018-08-31T04:31:48.201Z,27.6
2018-08-31T04:32:38.601Z,27.6
2018-08-31T04:33:28.361Z,27.6
2018-08-31T04:34:19.049Z,27.6
2018-08-31T04:35:08.510Z,27.6
2018-08-31T04:35:58.531Z,27.6
2018-08-31T04:36:49.155Z,27.6
2018-08-31T04:37:38.396Z,27.6
2018-08-31T04:38:29.521Z,27.6
2018-08-31T04:39:19.121Z,27.6
2018-08-31T04:40:08.888Z,27.6
2018-08-31T04:40:58.395Z,27.6
2018-08-31T04:41:49.866Z,27.6
2018-08-31T04:42:39.775Z,27.6
2018-08-31T05:00:17.243Z,27.6
2018-08-31T05:01:07.519Z,27.6
2018-08-31T05:01:58.111Z,27.6
2018-08-31T05:02:48.444Z,27.6
2018-08-31T05:03:38.052Z,27.6
2018-08-31T05:04:28.158Z,27.6
2018-08-31T05:05:17.961Z,27.6
2018-08-31T05:06:08.452Z,27.6
2018-08-31T05:06:58.755Z,27.6
2018-08-31T05:07:48.526Z,27.6
2018-08-31T05:08:37.896Z,27.6
2018-08-31T05:09:28.421Z,27.6
2018-08-31T05:10:18.716Z,27.6
2018-08-31T05:11:08.237Z,27.6
2018-08-31T05:11:58.591Z,27.6
2018-08-31T05:12:49.189Z,27.6
2018-08-31T05:13:39.279Z,27.6
2018-08-31T05:14:28.620Z,27.6
2018-08-31T05:15:19.176Z,27.6
2018-08-31T05:16:10.289Z,27.6
2018-08-31T05:16:59.299Z,27.6
2018-08-31T05:17:49.631Z,27.6
2018-08-31T05:18:39.645Z,27.6
2018-08-31T05:19:29.143Z,27.6
2018-08-31T05:20:19.781Z,27.6
2018-08-31T05:21:09.384Z,27.6
2018-08-31T05:22:00.113Z,27.6
2018-08-31T05:22:50.955Z,27.6
2018-08-31T05:23:40.258Z,27.6
2018-08-31T05:24:29.843Z,27.6
2018-08-31T05:25:20.252Z,27.6
2018-08-31T05:26:10.260Z,27.6
2018-08-31T05:27:00.011Z,27.6
2018-08-31T05:27:49.794Z,27.6
2018-08-31T05:28:40.249Z,27.6
2018-08-31T05:29:30.298Z,27.6
2018-08-31T05:30:20.340Z,27.6
2018-08-31T05:31:10.689Z,27.6
2018-08-31T05:32:00.936Z,27.6
2018-08-31T05:32:50.817Z,27.6
2018-08-31T05:33:40.323Z,27.6
2018-08-31T05:34:29.270Z,27.6
2018-08-31T05:35:19.915Z,27.6
2018-08-31T05:36:10.779Z,27.6
2018-08-31T05:36:59.542Z,27.6
2018-08-31T05:37:50.088Z,27.6
2018-08-31T05:38:40.720Z,27.6
2018-08-31T05:39:30.515Z,27.6
2018-08-31T05:40:20.588Z,27.6
2018-08-31T05:41:10.559Z,27.6
2018-08-31T05:42:01.707Z,27.6
2018-08-31T05:42:50.737Z,27.6
2018-08-31T05:43:41.296Z,27.6
2018-08-31T05:44:31.090Z,27.6
2018-08-31T05:45:20.664Z,27.6
2018-08-31T05:46:11.234Z,27.6
2018-08-31T05:47:01.029Z,27.6
2018-08-31T05:47:49.935Z,27.6
2018-08-31T05:48:42.034Z,27.6
2018-08-31T05:49:31.452Z,27.6
2018-08-31T05:50:21.829Z,27.6
2018-08-31T05:51:12.427Z,27.6
2018-08-31T05:52:01.679Z,27.6
2018-08-31T05:52:51.419Z,27.6
2018-08-31T05:53:42.698Z,27.6
2018-08-31T05:54:32.164Z,27.6
2018-08-31T05:55:22.218Z,27.6
2018-08-31T05:56:11.974Z,27.6
2018-08-31T05:57:02.323Z,27.6
2018-08-31T05:57:52.142Z,27.8
2018-08-31T05:58:41.908Z,35.1
2018-08-31T05:59:32.766Z,36.3
2018-08-31T06:00:22.387Z,38.3
2018-08-31T06:01:13.248Z,39.6
2018-08-31T06:02:03.308Z,38.7
2018-08-31T06:02:53.108Z,37.1
2018-08-31T06:03:43.140Z,35.8
2018-08-31T06:04:33.185Z,35.1
2018-08-31T06:05:23.250Z,34.6
2018-08-31T06:06:12.190Z,34.3
2018-08-31T06:07:03.368Z,34.1
2018-08-31T06:07:52.937Z,33.8
2018-08-31T06:08:42.980Z,33.6
2018-08-31T06:09:33.554Z,33.4
2018-08-31T06:10:23.443Z,33.3
2018-08-31T06:11:13.125Z,33.1
2018-08-31T06:12:05.432Z,33
2018-08-31T06:12:53.031Z,32.9
2018-08-31T06:13:43.887Z,32.8
2018-08-31T06:14:33.424Z,32.6
2018-08-31T06:15:23.459Z,32.5
2018-08-31T06:16:13.835Z,37.1
2018-08-31T06:17:03.863Z,38.6
2018-08-31T06:17:53.680Z,40.4
2018-08-31T06:18:43.767Z,41.6
2018-08-31T06:19:34.094Z,41.7
2018-08-31T06:20:23.856Z,41.6
2018-08-31T06:21:15.009Z,41.5
2018-08-31T06:22:04.050Z,41.6
2018-08-31T06:22:53.806Z,41.8
2018-08-31T06:23:44.399Z,42.1
2018-08-31T06:24:34.469Z,42.3
2018-08-31T06:25:24.774Z,42.5
2018-08-31T06:26:14.576Z,42.6
2018-08-31T06:27:04.260Z,42.7
2018-08-31T06:27:53.659Z,42.8
2018-08-31T06:28:44.067Z,42.9
2018-08-31T06:29:34.378Z,43
2018-08-31T06:30:23.581Z,43.1
2018-08-31T06:31:14.495Z,43.3
2018-08-31T06:32:04.809Z,43.4
2018-08-31T06:32:55.433Z,43.5
2018-08-31T06:33:44.797Z,43.6
2018-08-31T06:34:35.059Z,43.7
2018-08-31T06:35:25.011Z,43.8
2018-08-31T06:36:15.178Z,43.9
2018-08-31T06:37:04.418Z,44
2018-08-31T06:37:55.188Z,44.1
2018-08-31T06:38:45.106Z,44.3
2018-08-31T06:39:35.619Z,44.4
2018-08-31T06:40:25.123Z,44.4
2018-08-31T06:41:15.488Z,44.6
2018-08-31T06:42:05.543Z,44.7
2018-08-31T06:42:56.150Z,44.8
2018-08-31T06:43:45.712Z,44.9
2018-08-31T06:44:35.727Z,45
2018-08-31T06:45:26.074Z,45.1
2018-08-31T06:46:16.425Z,45.1
2018-08-31T06:47:06.197Z,45.3
2018-08-31T06:47:56.225Z,45.4
2018-08-31T06:48:46.088Z,45.4
2018-08-31T06:49:36.395Z,45.6
2018-08-31T06:50:26.715Z,45.6
2018-08-31T06:51:15.889Z,45.8
2018-08-31T06:52:06.612Z,45.8
2018-08-31T06:52:56.665Z,45.9
2018-08-31T06:53:46.172Z,46.1
2018-08-31T06:54:36.810Z,46.1
2018-08-31T06:55:26.144Z,46.3
2018-08-31T06:56:16.912Z,46.3
2018-08-31T06:57:07.267Z,46.4
2018-08-31T06:57:57.030Z,46.5
2018-08-31T06:58:47.095Z,46.6
2018-08-31T06:59:36.899Z,46.7
2018-08-31T07:00:27.504Z,46.8
2018-08-31T07:01:17.027Z,46.9
2018-08-31T07:02:07.584Z,47
2018-08-31T07:02:57.275Z,47.1
2018-08-31T07:03:48.149Z,47.2
2018-08-31T07:04:36.992Z,47.3
2018-08-31T07:05:27.354Z,47.4
2018-08-31T07:06:17.659Z,47.6
2018-08-31T07:07:06.977Z,47.6
2018-08-31T07:07:58.244Z,47.8
2018-08-31T07:08:48.597Z,47.9
2018-08-31T07:09:39.548Z,48
2018-08-31T07:10:27.738Z,48.1
2018-08-31T07:11:18.371Z,48.2
2018-08-31T07:12:07.630Z,48.3
2018-08-31T07:12:57.991Z,48.4
2018-08-31T07:13:48.246Z,48.5
2018-08-31T07:14:38.331Z,48.6
2018-08-31T07:15:28.118Z,48.7
2018-08-31T07:16:19.006Z,48.8
2018-08-31T07:17:08.268Z,48.9
2018-08-31T07:17:58.333Z,49
2018-08-31T07:18:48.927Z,49.1
2018-08-31T07:19:39.294Z,49.3
2018-08-31T07:20:28.238Z,49.4
2018-08-31T07:21:18.377Z,49.4
2018-08-31T07:22:08.637Z,49.6
2018-08-31T07:22:58.738Z,49.7
2018-08-31T07:23:49.329Z,49.8
2018-08-31T07:24:39.125Z,49.9
2018-08-31T07:25:28.404Z,50
2018-08-31T07:26:19.770Z,50.1
2018-08-31T07:27:08.738Z,50.3
2018-08-31T07:27:59.370Z,50.4
2018-08-31T07:28:49.447Z,50.4
2018-08-31T07:29:39.792Z,50.6
2018-08-31T07:30:29.045Z,50.7
2018-08-31T07:31:20.189Z,50.8
2018-08-31T07:32:09.237Z,50.9
2018-08-31T07:32:59.796Z,51
2018-08-31T07:33:49.035Z,51.1
2018-08-31T07:34:40.209Z,51.3
2018-08-31T07:35:29.724Z,51.4
2018-08-31T07:36:21.574Z,51.5
2018-08-31T07:37:10.132Z,51.6
2018-08-31T07:38:00.464Z,51.8
2018-08-31T07:38:50.292Z,51.8
2018-08-31T07:40:29.524Z,52.1
2018-08-31T07:41:20.439Z,52.2
2018-08-31T07:42:10.531Z,52.3
2018-08-31T07:43:50.909Z,52.6
2018-08-31T07:44:40.726Z,52.6
2018-08-31T07:45:30.450Z,52.8
2018-08-31T07:46:20.777Z,52.9
2018-08-31T07:47:11.456Z,53
2018-08-31T07:48:01.112Z,53.1
2018-08-31T07:48:51.017Z,53.2
2018-08-31T07:49:40.834Z,53.3
2018-08-31T07:50:31.426Z,53.4
2018-08-31T07:51:20.641Z,53.5
2018-08-31T07:52:11.249Z,53.6
2018-08-31T07:53:01.916Z,53.8
2018-08-31T07:53:52.450Z,53.9
2018-08-31T07:54:41.967Z,53.9
2018-08-31T07:55:31.832Z,54.1
2018-08-31T07:56:21.397Z,54.1
2018-08-31T07:57:11.962Z,54.3
2018-08-31T07:58:01.471Z,54.4
2018-08-31T07:58:51.300Z,54.5
2018-08-31T07:59:42.111Z,54.6
2018-08-31T08:00:31.379Z,54.7
2018-08-31T08:01:22.236Z,54.8
2018-08-31T08:02:11.739Z,54.9
2018-08-31T08:03:01.339Z,55.1
2018-08-31T08:03:51.645Z,55.2
2018-08-31T08:04:41.721Z,55.3
2018-08-31T08:05:32.719Z,55.4
2018-08-31T08:06:22.203Z,55.5
2018-08-31T08:07:12.506Z,55.6
2018-08-31T08:08:01.955Z,55.7
2018-08-31T08:08:52.560Z,55.8
2018-08-31T08:09:41.863Z,55.9
2018-08-31T08:10:32.423Z,56
2018-08-31T08:11:21.922Z,56.1
2018-08-31T08:12:12.500Z,56.2
2018-08-31T08:13:02.662Z,56.3
2018-08-31T08:13:52.697Z,56.4
2018-08-31T08:14:43.511Z,56.5
2018-08-31T08:15:33.406Z,56.6
2018-08-31T08:16:23.621Z,56.7
2018-08-31T08:17:12.467Z,56.8
2018-08-31T08:18:02.713Z,56.9
2018-08-31T08:18:52.795Z,56.9
2018-08-31T08:19:44.263Z,57.1
2018-08-31T08:20:33.326Z,57.2
2018-08-31T08:21:23.798Z,57.3
2018-08-31T08:22:13.361Z,57.3
2018-08-31T08:23:03.917Z,57.4
2018-08-31T08:23:53.160Z,57.5
2018-08-31T08:24:43.565Z,57.6
2018-08-31T08:25:34.162Z,57.7
2018-08-31T08:26:24.164Z,57.8
2018-08-31T08:27:14.302Z,57.9
2018-08-31T08:28:03.794Z,58
2018-08-31T08:28:54.127Z,58.1
2018-08-31T08:29:44.257Z,58.1
2018-08-31T08:30:34.273Z,58.3
2018-08-31T08:31:24.089Z,58.3
2018-08-31T08:32:14.113Z,58.4
2018-08-31T08:34:44.027Z,58.7
2018-08-31T08:35:34.946Z,58.8
2018-08-31T08:36:24.420Z,58.8
2018-08-31T08:37:14.526Z,58.9
2018-08-31T08:38:04.840Z,59
2018-08-31T08:38:54.443Z,59.1
2018-08-31T08:39:45.218Z,59.1
2018-08-31T08:40:35.076Z,59.2
2018-08-31T08:41:25.108Z,59.3
2018-08-31T08:42:16.919Z,59.3
2018-08-31T08:43:05.239Z,59.4
2018-08-31T08:43:55.576Z,59.4
2018-08-31T08:44:44.786Z,59.6
2018-08-31T08:45:35.759Z,59.6
2018-08-31T08:46:25.221Z,59.7
2018-08-31T08:47:16.088Z,59.8
2018-08-31T08:48:05.088Z,59.9
2018-08-31T08:48:55.293Z,59.9
2018-08-31T08:49:46.022Z,60
2018-08-31T08:50:35.303Z,60.1
2018-08-31T08:51:26.189Z,60.1
2018-08-31T08:52:15.396Z,60.2
2018-08-31T08:53:05.980Z,60.3
2018-08-31T08:53:56.603Z,60.4
2018-08-31T08:54:46.355Z,60.4
2018-08-31T08:55:36.212Z,60.4
2018-08-31T08:56:26.263Z,60.6
2018-08-31T08:57:16.101Z,60.6
2018-08-31T08:58:06.377Z,60.7
2018-08-31T09:14:49.154Z,61.9
2018-08-31T09:15:38.476Z,62.1
2018-08-31T09:16:28.544Z,62.1
2018-08-31T09:17:19.153Z,62.1
2018-08-31T09:18:08.969Z,62.3
2018-08-31T09:18:59.335Z,62.3
2018-08-31T09:19:49.603Z,62.3
2018-08-31T09:20:39.398Z,62.4
2018-08-31T09:21:29.481Z,62.5
2018-08-31T09:22:19.311Z,62.6
2018-08-31T09:23:09.306Z,62.6
2018-08-31T09:23:59.444Z,62.7
2018-08-31T09:24:50.799Z,62.8
2018-08-31T09:25:39.548Z,62.8
2018-08-31T09:26:30.114Z,62.9
2018-08-31T09:27:19.745Z,62.9
2018-08-31T09:28:09.992Z,63.1
2018-08-31T09:28:59.752Z,63.1
2018-08-31T09:29:49.829Z,63.2
2018-08-31T09:30:39.929Z,63.3
2018-08-31T09:31:30.560Z,63.3
2018-08-31T09:32:19.803Z,63.3
2018-08-31T09:33:09.865Z,63.4
2018-08-31T09:34:00.725Z,63.4
2018-08-31T09:34:51.036Z,63.6
2018-08-31T09:35:41.115Z,63.6
2018-08-31T09:36:30.083Z,63.7
2018-08-31T09:37:20.183Z,63.8
2018-08-31T09:38:10.476Z,63.8
2018-08-31T09:39:00.294Z,63.9
2018-08-31T09:39:51.453Z,63.9
2018-08-31T09:40:40.920Z,63.9
2018-08-31T09:41:31.102Z,64.1
2018-08-31T09:42:21.117Z,64.1
2018-08-31T09:43:10.695Z,64.1
2018-08-31T09:44:01.183Z,64.3
2018-08-31T09:44:50.525Z,64.3
2018-08-31T09:45:41.079Z,64.4
2018-08-31T09:46:31.404Z,64.4
2018-08-31T09:47:20.956Z,64.5
2018-08-31T09:48:11.262Z,64.5
2018-08-31T09:49:01.329Z,64.6
2018-08-31T09:49:52.874Z,64.7
2018-08-31T09:50:42.004Z,64.7
2018-08-31T09:51:31.816Z,64.8
2018-08-31T09:52:22.156Z,64.9
2018-08-31T09:53:11.986Z,65
2018-08-31T09:54:01.739Z,65
2018-08-31T09:54:50.994Z,65.1
2018-08-31T09:55:42.673Z,65.1
2018-08-31T09:56:31.340Z,65.2
2018-08-31T09:57:53.139Z,65.3
2018-08-31T09:58:50.793Z,65.4
2018-08-31T09:59:23.796Z,65.4
2018-08-31T10:00:14.401Z,65.4
2018-08-31T10:01:05.218Z,65.5
2018-08-31T10:01:54.751Z,65.6
2018-08-31T10:02:44.613Z,65.6
2018-08-31T10:03:34.607Z,65.6
2018-08-31T10:04:24.971Z,65.7
2018-08-31T10:05:15.368Z,65.8
2018-08-31T10:06:04.253Z,65.9
2018-08-31T10:06:54.033Z,65.9
2018-08-31T10:07:44.668Z,66
2018-08-31T10:08:35.033Z,66.1
2018-08-31T10:09:25.225Z,66.1
2018-08-31T10:10:15.681Z,66.1
2018-08-31T10:11:05.456Z,66.2
2018-08-31T10:11:54.700Z,66.3
2018-08-31T10:12:45.652Z,66.4
2018-08-31T10:13:35.678Z,66.4
2018-08-31T10:14:25.784Z,66.4
2018-08-31T10:15:15.552Z,66.5
2018-08-31T10:16:05.847Z,66.6
2018-08-31T10:16:56.017Z,66.6
2018-08-31T10:17:46.034Z,66.8
2018-08-31T10:18:35.923Z,66.8
2018-08-31T10:19:26.525Z,66.8
2018-08-31T10:20:16.214Z,66.9
2018-08-31T10:21:06.486Z,66.9
2018-08-31T10:21:56.097Z,66.9
2018-08-31T10:22:46.155Z,67
2018-08-31T10:23:36.474Z,67
2018-08-31T10:24:26.782Z,67.1
2018-08-31T10:25:16.601Z,67.2
2018-08-31T10:26:07.229Z,67.2
2018-08-31T10:26:55.759Z,67.3
2018-08-31T10:27:46.789Z,67.3
2018-08-31T10:28:36.008Z,67.4
2018-08-31T10:29:26.954Z,67.5
2018-08-31T10:30:17.274Z,67.5
2018-08-31T10:31:07.219Z,67.6
2018-08-31T10:31:57.055Z,67.7
2018-08-31T10:32:46.913Z,67.8
2018-08-31T10:33:36.688Z,67.8
2018-08-31T10:34:27.383Z,67.9
2018-08-31T10:35:16.816Z,67.9
2018-08-31T10:36:07.680Z,67.9
2018-08-31T10:36:57.509Z,68.1
2018-08-31T10:37:47.643Z,68.1
2018-08-31T10:38:37.643Z,68.2
2018-08-31T10:39:27.386Z,68.3
2018-08-31T10:40:17.482Z,68.2
2018-08-31T10:41:07.564Z,68.3
2018-08-31T10:41:57.600Z,68.3
2018-08-31T10:42:47.110Z,68.4
2018-08-31T10:43:36.615Z,68.5
2018-08-31T10:44:27.736Z,68.6
2018-08-31T10:45:17.890Z,68.6
2018-08-31T10:46:07.681Z,68.6
2018-08-31T10:46:58.565Z,68.7
2018-08-31T10:47:48.362Z,68.7
2018-08-31T10:48:38.182Z,68.8
2018-08-31T10:49:28.183Z,68.8
2018-08-31T10:50:18.567Z,68.9
2018-08-31T10:51:08.310Z,68.9
2018-08-31T10:51:58.932Z,69
2018-08-31T10:52:48.204Z,69.1
2018-08-31T10:53:37.994Z,69.1
2018-08-31T10:54:29.146Z,69.2
2018-08-31T10:55:18.969Z,69.3
2018-08-31T10:56:08.713Z,69.3
2018-08-31T10:56:58.829Z,69.3
2018-08-31T10:57:48.854Z,69.4
2018-08-31T10:58:38.920Z,69.4
2018-08-31T10:59:29.347Z,69.4
2018-08-31T11:00:18.587Z,69.5
2018-08-31T11:01:08.948Z,69.6
2018-08-31T11:01:59.469Z,69.6
2018-08-31T11:02:49.549Z,69.7
2018-08-31T11:03:40.095Z,69.7
2018-08-31T11:04:29.407Z,69.8
2018-08-31T11:05:18.624Z,69.8
2018-08-31T11:06:09.791Z,69.8
2018-08-31T11:06:59.876Z,69.9
2018-08-31T11:07:49.967Z,69.9
2018-08-31T11:08:39.978Z,69.9
2018-08-31T11:09:29.532Z,70
2018-08-31T11:10:20.099Z,70
2018-08-31T11:11:10.218Z,70.1
2018-08-31T11:11:59.688Z,70.1
2018-08-31T11:12:52.017Z,70.1
2018-08-31T11:13:40.364Z,70.2
2018-08-31T11:14:30.148Z,70.3
2018-08-31T11:15:21.836Z,70.3
2018-08-31T11:16:10.566Z,70.3
2018-08-31T11:17:00.646Z,70.4
2018-08-31T11:17:50.390Z,70.4
2018-08-31T11:18:40.890Z,70.4
2018-08-31T11:19:30.246Z,70.5
2018-08-31T11:20:20.628Z,70.5
2018-08-31T11:21:10.693Z,70.6
2018-08-31T11:22:00.495Z,70.6
2018-08-31T11:22:51.108Z,70.7
2018-08-31T11:23:41.226Z,70.6
2018-08-31T11:24:31.230Z,70.7
2018-08-31T11:25:20.751Z,70.8
2018-08-31T11:26:10.785Z,70.8
2018-08-31T11:27:01.130Z,70.8
2018-08-31T11:27:51.269Z,70.9
2018-08-31T11:28:40.978Z,70.9
2018-08-31T11:29:31.350Z,70.9
2018-08-31T11:30:21.700Z,71
2018-08-31T11:31:11.192Z,71.1
2018-08-31T11:32:01.815Z,71.1
2018-08-31T11:32:51.906Z,71.1
2018-08-31T11:33:41.938Z,71.2
2018-08-31T11:35:02.752Z,71.3
2018-08-31T11:35:51.284Z,71.3
2018-08-31T11:36:29.934Z,71.3
2018-08-31T11:37:16.604Z,71.3
2018-08-31T11:37:51.982Z,71.4
2018-08-31T11:38:58.129Z,71.4
2018-08-31T11:39:32.476Z,71.4
2018-08-31T11:40:22.453Z,71.4
2018-08-31T11:41:12.625Z,71.5
2018-08-31T11:42:02.653Z,71.5
2018-08-31T11:43:21.582Z,71.5
2018-08-31T11:43:42.505Z,71.6
2018-08-31T11:44:32.762Z,71.6
2018-08-31T11:45:22.541Z,71.6
2018-08-31T11:46:12.674Z,71.6
2018-08-31T11:47:02.699Z,71.7
2018-08-31T11:48:08.189Z,71.7
2018-08-31T11:48:43.356Z,71.7
2018-08-31T11:49:33.415Z,71.7
2018-08-31T11:50:22.676Z,71.7
2018-08-31T11:51:12.686Z,71.7
2018-08-31T11:52:03.089Z,71.8
2018-08-31T11:52:53.443Z,71.8
2018-08-31T11:53:42.652Z,71.8
2018-08-31T11:54:33.873Z,71.8
2018-08-31T11:55:24.429Z,71.9
2018-08-31T11:56:13.371Z,71.9
2018-08-31T11:57:03.240Z,71.9
2018-08-31T11:57:53.583Z,71.9
2018-08-31T11:58:43.654Z,71.9
2018-08-31T11:59:33.664Z,71.9
2018-08-31T12:00:23.750Z,71.9
2018-08-31T12:01:14.038Z,72
2018-08-31T12:02:05.292Z,72
2018-08-31T12:02:53.369Z,72
2018-08-31T12:03:44.518Z,72.1